createdAt,value
2022-10-09T00:00:35.036Z,31.466667
2022-10-09T00:05:17.075Z,31.866667
2022-10-09T00:10:19.528Z,32.400000
2022-10-09T00:15:21.948Z,32.733333
2022-10-09T00:20:24.293Z,33.071429
2022-10-09T00:25:26.606Z,33.333333
2022-10-09T00:30:29.540Z,33.666667
2022-10-09T00:35:31.622Z,34.133333
2022-10-09T00:40:34.055Z,34.000000
2022-10-09T00:45:16.021Z,34.866667
2022-10-09T00:50:18.106Z,36.600000
2022-10-09T00:55:20.454Z,37.400000
2022-10-09T01:00:22.629Z,37.428571
2022-10-09T01:05:25.090Z,38.333333
2022-10-09T01:10:27.627Z,38.466667
2022-10-09T01:15:29.802Z,38.266667
2022-10-09T01:20:31.998Z,38.333333
2022-10-09T01:25:34.337Z,39.466667
2022-10-09T01:30:16.548Z,40.933333
2022-10-09T01:35:18.891Z,42.800000
2022-10-09T01:40:21.523Z,44.266667
2022-10-09T01:45:23.638Z,45.642857
2022-10-09T01:50:26.108Z,46.133333
2022-10-09T01:55:29.017Z,44.333333
2022-10-09T02:00:32.715Z,46.933333
2022-10-09T02:05:36.400Z,48.000000
2022-10-09T02:10:19.186Z,49.000000
2022-10-09T02:15:23.804Z,49.071429
2022-10-09T02:20:32.549Z,49.333333
2022-10-09T02:25:35.900Z,48.933333
2022-10-09T02:30:19.006Z,47.200000
2022-10-09T02:35:23.185Z,44.571429
2022-10-09T02:40:26.667Z,43.933333
2022-10-09T02:45:25.940Z,43.000000
2022-10-09T02:50:29.815Z,43.866667
2022-10-09T02:55:29.381Z,44.285714
2022-10-09T03:00:26.743Z,44.066667
2022-10-09T03:05:18.394Z,44.000000
2022-10-09T03:10:34.425Z,44.571429
2022-10-09T03:15:43.458Z,45.733333
2022-10-09T03:20:27.729Z,46.357143
2022-10-09T03:25:34.559Z,47.000000
2022-10-09T03:30:15.966Z,47.071429
2022-10-09T03:35:31.795Z,48.571429
2022-10-09T03:40:19.854Z,48.666667
2022-10-09T03:45:29.305Z,50.500000
2022-10-09T03:50:33.959Z,50.466667
2022-10-09T03:55:44.234Z,51.866667
2022-10-09T04:00:31.002Z,51.214286
2022-10-09T04:06:02.804Z,49.066667
2022-10-09T04:10:19.386Z,47.214286
2022-10-09T04:15:29.194Z,46.733333
2022-10-09T04:20:20.811Z,50.533333
2022-10-09T04:25:24.090Z,52.642857
2022-10-09T04:30:27.002Z,54.266667
2022-10-09T04:35:30.797Z,55.600000
2022-10-09T04:40:33.033Z,57.600000
2022-10-09T04:45:16.047Z,58.133333
2022-10-09T04:50:18.859Z,57.866667
2022-10-09T04:55:22.193Z,53.928571
2022-10-09T05:00:24.933Z,50.266667
2022-10-09T05:05:27.862Z,51.066667
2022-10-09T05:10:30.961Z,54.200000
2022-10-09T05:15:33.545Z,55.266667
2022-10-09T05:20:16.437Z,57.533333
2022-10-09T05:25:18.718Z,60.357143
2022-10-09T05:30:24.162Z,59.857143
2022-10-09T05:35:18.266Z,62.066667
2022-10-09T05:40:29.235Z,63.071429
2022-10-09T05:45:20.954Z,65.200000
2022-10-09T05:50:24.058Z,66.000000
2022-10-09T05:55:39.407Z,67.133333
2022-10-09T06:00:30.240Z,67.866667
2022-10-09T06:05:44.942Z,68.000000
2022-10-09T06:10:36.001Z,67.250000
2022-10-09T06:15:18.769Z,66.800000
2022-10-09T06:20:27.050Z,66.285714
2022-10-09T06:25:30.272Z,67.800000
2022-10-09T06:30:17.802Z,69.000000
2022-10-09T06:35:21.343Z,69.533333
2022-10-09T06:40:25.083Z,70.000000
2022-10-09T06:45:28.491Z,70.933333
2022-10-09T06:50:44.593Z,70.533333
2022-10-09T06:55:35.585Z,70.533333
2022-10-09T07:00:18.533Z,72.142857
2022-10-09T07:05:21.920Z,72.187500
2022-10-09T07:10:25.546Z,72.142857
2022-10-09T07:15:29.639Z,72.000000
2022-10-09T07:20:32.459Z,72.000000
2022-10-09T07:25:36.198Z,71.000000
2022-10-09T07:30:19.109Z,71.000000
2022-10-09T07:35:20.860Z,70.571429
2022-10-09T07:40:31.753Z,67.400000
2022-10-09T07:45:47.168Z,67.333333
2022-10-09T07:50:17.570Z,67.400000
2022-10-09T07:55:20.441Z,66.866667
2022-10-09T08:00:23.889Z,66.142857
2022-10-09T08:05:27.128Z,66.200000
2022-10-09T08:10:30.443Z,65.200000
2022-10-09T08:15:33.609Z,64.642857
2022-10-09T08:20:16.051Z,65.812500
2022-10-09T08:25:19.216Z,67.000000
2022-10-09T08:30:21.471Z,66.133333
2022-10-09T08:35:25.012Z,66.357143
2022-10-09T08:40:27.325Z,64.133333
2022-10-09T08:45:30.102Z,64.133333
2022-10-09T08:50:34.035Z,68.533333
2022-10-09T08:55:35.696Z,72.133333
2022-10-09T09:00:17.478Z,73.533333
2022-10-09T09:05:20.782Z,74.000000
2022-10-09T09:10:24.325Z,74.000000
2022-10-09T09:15:26.748Z,74.000000
2022-10-09T09:20:34.815Z,73.200000
2022-10-09T09:25:30.154Z,73.733333
2022-10-09T09:30:21.429Z,74.000000
2022-10-09T09:35:31.957Z,73.142857
2022-10-09T09:40:37.213Z,73.533333
2022-10-09T09:45:22.558Z,73.071429
2022-10-09T09:50:46.232Z,72.533333
2022-10-09T09:55:20.505Z,72.066667
2022-10-09T10:00:32.536Z,73.400000
2022-10-09T10:05:21.744Z,74.000000
2022-10-09T10:10:30.497Z,73.000000
2022-10-09T10:15:34.240Z,69.866667
2022-10-09T10:20:29.629Z,69.000000
2022-10-09T10:25:21.403Z,70.000000
2022-10-09T10:30:24.923Z,69.357143
2022-10-09T10:35:28.725Z,69.200000
2022-10-09T10:40:31.519Z,69.800000
2022-10-09T10:45:33.745Z,67.266667
2022-10-09T10:50:16.009Z,67.800000
2022-10-09T10:55:18.505Z,66.400000
2022-10-09T11:00:21.105Z,67.400000
2022-10-09T11:05:23.325Z,64.857143
2022-10-09T11:10:25.481Z,64.666667
2022-10-09T11:15:28.266Z,65.733333
2022-10-09T11:20:31.049Z,66.466667
2022-10-09T11:25:25.037Z,65.066667
2022-10-09T11:30:35.861Z,66.866667
2022-10-09T11:35:18.078Z,66.600000
2022-10-09T11:40:20.367Z,68.333333
2022-10-09T11:45:23.165Z,71.642857
2022-10-09T11:50:26.156Z,74.866667
2022-10-09T11:55:28.281Z,77.466667
2022-10-09T12:00:30.541Z,77.800000
2022-10-09T12:05:32.908Z,77.666667
2022-10-09T12:10:35.127Z,78.400000
2022-10-09T12:15:17.267Z,78.266667
2022-10-09T12:20:33.078Z,76.933333
2022-10-09T12:25:22.292Z,76.000000
2022-10-09T12:30:24.584Z,76.000000
2022-10-09T12:35:26.954Z,76.400000
2022-10-09T12:40:29.754Z,77.866667
2022-10-09T12:45:32.674Z,78.000000
2022-10-09T12:50:26.606Z,77.066667
2022-10-09T12:55:17.705Z,75.600000
2022-10-09T13:00:21.217Z,74.533333
2022-10-09T13:05:23.558Z,76.142857
2022-10-09T13:10:25.857Z,76.666667
2022-10-09T13:15:28.641Z,79.666667
2022-10-09T13:20:31.221Z,81.000000
2022-10-09T13:25:33.638Z,81.000000
2022-10-09T13:30:35.887Z,81.400000
2022-10-09T13:35:17.868Z,82.666667
2022-10-09T13:40:20.111Z,84.000000
2022-10-09T13:45:22.525Z,84.000000
2022-10-09T13:50:25.968Z,84.200000
2022-10-09T13:55:26.966Z,84.800000
2022-10-09T14:00:29.255Z,83.866667
2022-10-09T14:05:31.285Z,83.000000
2022-10-09T14:10:33.611Z,82.866667
2022-10-09T14:15:35.853Z,82.000000
2022-10-09T14:20:18.039Z,82.000000
2022-10-09T14:25:20.300Z,80.933333
2022-10-09T14:30:22.783Z,78.785714
2022-10-09T14:35:25.100Z,77.133333
2022-10-09T14:40:27.385Z,76.000000
2022-10-09T14:45:29.686Z,75.000000
2022-10-09T14:50:32.347Z,74.733333
2022-10-09T14:55:34.321Z,73.200000
2022-10-09T15:00:16.386Z,73.666667
2022-10-09T15:05:18.599Z,71.866667
2022-10-09T15:10:20.790Z,71.000000
2022-10-09T15:15:23.256Z,71.357143
2022-10-09T15:20:25.363Z,72.733333
2022-10-09T15:25:27.665Z,72.733333
2022-10-09T15:30:30.180Z,72.733333
2022-10-09T15:35:32.340Z,72.533333
2022-10-09T15:40:26.341Z,73.733333
2022-10-09T15:45:16.759Z,73.066667
2022-10-09T15:50:18.948Z,72.466667
2022-10-09T15:55:21.650Z,71.933333
2022-10-09T16:00:23.513Z,71.000000
2022-10-09T16:05:25.973Z,70.066667
2022-10-09T16:10:28.033Z,68.200000
2022-10-09T16:15:31.264Z,66.133333
2022-10-09T16:20:32.640Z,64.733333
2022-10-09T16:25:34.758Z,63.466667
2022-10-09T16:30:17.414Z,62.000000
2022-10-09T16:35:19.773Z,59.133333
2022-10-09T16:40:32.646Z,58.666667
2022-10-09T16:45:24.439Z,59.071429
2022-10-09T16:50:27.810Z,55.933333
2022-10-09T16:55:29.899Z,54.866667
2022-10-09T17:00:32.364Z,52.533333
2022-10-09T17:05:35.086Z,48.066667
2022-10-09T17:10:17.456Z,46.933333
2022-10-09T17:15:20.030Z,44.266667
2022-10-09T17:20:23.383Z,41.857143
2022-10-09T17:25:27.502Z,42.600000
2022-10-09T17:30:30.860Z,42.533333
2022-10-09T17:35:33.718Z,41.600000
2022-10-09T17:40:17.577Z,40.800000
2022-10-09T17:45:20.583Z,40.800000
2022-10-09T17:50:30.221Z,40.285714
2022-10-09T17:55:34.208Z,39.933333
2022-10-09T18:00:20.868Z,39.400000
2022-10-09T18:05:19.674Z,39.642857
2022-10-09T18:10:22.776Z,40.000000
2022-10-09T18:15:25.948Z,38.800000
2022-10-09T18:20:29.443Z,37.533333
2022-10-09T18:25:32.505Z,36.066667
2022-10-09T18:30:35.808Z,36.333333
2022-10-09T18:35:18.443Z,36.733333
2022-10-09T18:40:21.590Z,37.533333
2022-10-09T18:45:36.682Z,36.357143
2022-10-09T18:50:28.330Z,36.466667
2022-10-09T18:55:31.563Z,36.533333
2022-10-09T19:00:34.933Z,36.000000
2022-10-09T19:05:17.749Z,36.066667
2022-10-09T19:10:21.216Z,34.333333
2022-10-09T19:15:36.574Z,33.714286
2022-10-09T19:25:18.057Z,34.571429
2022-10-09T19:30:33.103Z,34.933333
2022-10-09T19:35:29.971Z,35.285714
2022-10-09T19:40:34.060Z,35.066667
2022-10-09T19:45:17.177Z,35.866667
2022-10-09T19:50:20.439Z,35.428571
2022-10-09T19:55:31.016Z,35.000000
2022-10-09T20:00:30.515Z,33.733333
2022-10-09T20:05:21.313Z,32.600000
2022-10-09T20:10:23.881Z,32.428571
2022-10-09T20:15:26.167Z,33.400000
2022-10-09T20:20:29.472Z,33.400000
2022-10-09T20:25:44.704Z,33.200000
2022-10-09T20:30:34.039Z,32.666667
2022-10-09T20:35:28.457Z,31.933333
2022-10-09T20:40:18.934Z,32.333333
2022-10-09T20:45:21.461Z,32.400000
2022-10-09T20:50:23.938Z,34.214286
2022-10-09T20:55:26.456Z,34.200000
2022-10-09T21:00:28.746Z,33.866667
2022-10-09T21:05:23.124Z,35.666667
2022-10-09T21:10:34.015Z,32.266667
2022-10-09T21:15:38.310Z,31.466667
2022-10-09T21:20:18.293Z,31.866667
2022-10-09T21:25:20.549Z,31.200000
2022-10-09T21:30:23.137Z,32.071429
2022-10-09T21:35:25.422Z,30.133333
2022-10-09T21:40:27.978Z,31.400000
2022-10-09T21:45:30.385Z,31.933333
2022-10-09T21:50:32.760Z,30.866667
2022-10-09T21:55:35.137Z,29.333333
2022-10-09T22:00:17.128Z,30.666667
2022-10-09T22:05:19.324Z,30.533333
2022-10-09T22:10:22.016Z,30.000000
2022-10-09T22:15:24.727Z,30.142857
2022-10-09T22:20:26.462Z,29.533333
2022-10-09T22:25:28.622Z,28.533333
2022-10-09T22:30:30.762Z,28.733333
2022-10-09T22:35:33.074Z,28.533333
2022-10-09T22:40:35.037Z,28.933333
2022-10-09T22:45:17.284Z,30.533333
2022-10-09T22:50:19.317Z,33.133333
2022-10-09T22:55:21.350Z,32.800000
2022-10-09T23:00:23.407Z,33.857143
2022-10-09T23:05:25.768Z,33.933333
2022-10-09T23:10:28.093Z,34.666667
2022-10-09T23:15:30.560Z,35.800000
2022-10-09T23:20:33.003Z,35.600000
2022-10-09T23:25:35.224Z,37.333333
2022-10-09T23:30:17.584Z,38.600000
2022-10-09T23:35:20.701Z,39.266667
2022-10-09T23:40:23.801Z,39.214286
2022-10-09T23:45:25.040Z,39.866667
2022-10-09T23:50:27.612Z,42.400000
2022-10-09T23:55:30.282Z,42.800000
